Crossville, TN (38555)

7:13 AM CDT on July 26, 2016 (GMT -0500)
Crossville City Hall | | Change Station

Elev 1867 ft 35.95 °N, 85.03 °W | Updated 5 minutes ago

Partly Cloudy
Partly Cloudy
75.5 °F
Feels Like 76 °F
N
0.0
Wind Variable Wind from SSW
Gusts 0.0 mph

Today
High -- | Low -- °F
--% Chance of Precip.
Yesterday
High -- | Low -- °F
Precip. -- in
Pressure 30.06 in
Visibility 10.0 miles
Clouds Few 12000 ft
Heat Index 76 °F
Dew Point 71 °F
Humidity 85%
Rainfall 0.00 in
Snow Depth Not available.
5:43 AM 7:49 PM
Waning Gibbous, 55% visible
METAR KCSV 261153Z AUTO 00000KT 10SM FEW120 23/21 A3013 RMK AO2 SLP177 T02280211 10244 20211 51009
Pressure 30.06 in
Visibility 10.0 miles
Clouds Few 12000 ft
Heat Index 76 °F
Dew Point 71 °F
Humidity 85%
Rainfall 0.00 in
Snow Depth Not available.
5:43 AM 7:49 PM
Waning Gibbous, 55% visible
METAR KCSV 261153Z AUTO 00000KT 10SM FEW120 23/21 A3013 RMK AO2 SLP177 T02280211 10244 20211 51009

10-Day Weather Forecast

Almanac

Astronomy

Jul. 26, 2016 Rise Set
Actual Time
Civil Twilight
Nautical Twilight
Astronomical Twilight
Moon
Length of Visible Light
Length of Day
Tomorrow will be .
, % of the Moon is Illuminated

Today's Extremes

State Highs State Lows

Community

WunderPhotos

Upload Photos

1,927,580 photos uploaded!

WunderBlog® & News

Nearby

Air Quality

  Air Quality AQ Index Pollutant
Not available.

Snow Depth

Station Depth Elevation

Earthquake Activity

City Distance Mag. Time & Date
Minimum magnitude displayed is 2.5.

Coastal Water Temperatures

Place Temperature

Stations

Nearby Weather Stations

Station Location Temp. Windchill Dew Point Humidity Wind Precip. Elev Updated Type
                   

Watches & Warnings

There are currently no watches in effect.